Terminal Aerodrome Forecast
Issued by NWS Shreveport, LA

Home | Current Version | Previous Version | Text Only | Print | Product List | Glossary On
Versions: 1 2 3 4 5 6 7 8 9 10 11 12 13 14 15 16 17
000
FTUS44 KSHV 240100 AAA
TAFELD
TAF AMD
KELD 240122Z 2401/2424 01010G22KT P6SM -RA FEW060 BKN070 OVC090
     FM240200 02009KT 6SM -RA BR SCT060 BKN100
     FM240800 20002KT 4SM BR SKC
     FM241500 25004KT P6SM SCT030=

USA.gov is the U.S. government's official web portal to all federal, state and local government web resources and services.